EW9883 Weather Reports


Display with metric or nautical units.
time (UTC)temp
F
wind
direction
speed
MPH
gust
MPH
rain 1hr
in
rain 24hr
in
rain mn
in
humidity
%
barometer
mb
20200226222022 49 0.0 0.0 0.00 0.00 0.00 22 1025.4
20200226221043 49 293 0.0 1.0 0.00 0.00 0.00 23 1025.6
20200226220040 49 0.0 0.0 0.00 0.00 0.00 23 1025.8
20200226215032 48 270 0.0 1.0 0.00 0.00 0.00 24 1025.9
20200226214024 49 293 0.0 3.0 0.00 0.00 0.00 24 1026.0
20200226213027 49 315 0.0 1.0 0.00 0.00 0.00 25 1026.1
20200226212033 47 0.0 0.0 0.00 0.00 0.00 25 1026.2
20200226211017 47 270 2.0 7.0 0.00 0.00 0.00 25 1026.4
20200226210023 48 270 1.0 6.0 0.00 0.00 0.00 25 1026.6
20200226205022 47 285 0.0 2.0 0.00 0.00 0.00 26 1026.7
20200226204021 47 256 1.0 6.0 0.00 0.00 0.00 26 1026.8
20200226203041 47 275 1.0 7.0 0.00 0.00 0.00 27 1027.1
20200226202024 46 338 0.0 3.0 0.00 0.00 0.00 27 1027.4
20200226201035 46 271 4.0 9.0 0.00 0.00 0.00 26 1027.5
20200226200037 47 293 0.0 2.0 0.00 0.00 0.00 27 1027.8
20200226195016 46 293 0.0 1.0 0.00 0.00 0.00 28 1028.2
20200226194019 45 306 1.0 9.0 0.00 0.00 0.00 28 1028.4
20200226193018 44 0.0 0.0 0.00 0.00 0.00 29 1028.6
20200226192023 44 0.0 0.0 0.00 0.00 0.00 29 1028.9
20200226191024 44 289 1.0 5.0 0.00 0.00 0.00 30 1029.1
20200226190024 43 325 1.0 5.0 0.00 0.00 0.00 30 1029.4
20200226185023 43 270 1.0 4.0 0.00 0.00 0.00 31 1029.6
20200226184021 42 313 0.0 3.0 0.00 0.00 0.00 32 1029.7
20200226183022 41 315 0.0 2.0 0.00 0.00 0.00 33 1029.9
20200226182020 41 340 1.0 6.0 0.00 0.00 0.00 33 1030.1
20200226181033 41 17 0.0 4.0 0.00 0.00 0.00 34 1030.3
20200226180038 40 274 0.0 1.0 0.00 0.00 0.00 34 1030.5
20200226175033 39 0.0 0.0 0.00 0.00 0.00 35 1030.6
20200226174021 39 0.0 0.0 0.00 0.00 0.00 36 1030.7
20200226173018 38 0.0 0.0 0.00 0.00 0.00 36 1030.7
20200226172029 37 0.0 0.0 0.00 0.00 0.00 38 1031.0
20200226171021 37 0.0 0.0 0.00 0.00 0.00 38 1031.1
20200226170025 36 0.0 0.0 0.00 0.00 0.00 40 1031.3
20200226165034 36 315 0.0 1.0 0.00 0.00 0.00 41 1031.4
20200226164023 35 334 0.0 6.0 0.00 0.00 0.00 44 1031.5
20200226163038 35 293 0.0 1.0 0.00 0.00 0.00 47 1031.6
20200226162020 33 0.0 0.0 0.00 0.00 0.00 48 1031.6
20200226161026 33 293 0.0 1.0 0.00 0.00 0.00 51 1031.6
20200226160025 32 316 2.0 8.0 0.00 0.00 0.00 53 1031.6
20200226155019 31 338 0.0 1.0 0.00 0.00 0.00 55 1031.6
20200226154028 30 0.0 0.0 0.00 0.00 0.00 57 1031.5
20200226153031 29 309 0.0 2.0 0.00 0.00 0.00 58 1031.4
20200226152018 29 338 0.0 1.0 0.00 0.00 0.00 60 1031.4
20200226151030 28 306 0.0 3.0 0.00 0.00 0.00 62 1031.6
20200226150038 27 283 3.0 7.0 0.00 0.00 0.00 64 1031.4
20200226145016 26 289 3.0 7.0 0.00 0.00 0.00 66 1031.3
20200226144023 25 0.0 0.0 0.00 0.00 0.00 68 1031.2
20200226143021 24 0.0 0.0 0.00 0.00 0.00 69 1030.9
20200226142030 23 0.0 0.0 0.00 0.00 0.00 71 1030.7
20200226141024 23 0.0 0.0 0.00 0.00 0.00 73 1030.5
20200226140018 22 0.0 0.0 0.00 0.00 0.00 74 1030.5
20200226135027 22 0.0 0.0 0.00 0.00 0.00 75 1030.3
20200226134019 21 0.0 0.0 0.00 0.00 0.00 76 1030.1
20200226133033 21 0.0 0.0 0.00 0.00 0.00 76 1029.9
20200226132033 20 0.0 0.0 0.00 0.00 0.00 76 1029.8
20200226131033 20 0.0 0.0 0.00 0.00 0.00 76 1029.4
20200226130027 21 0.0 0.0 0.00 0.00 0.00 75 1029.4
20200226125025 21 0.0 0.0 0.00 0.00 0.00 74 1029.2
20200226124031 22 0.0 0.0 0.00 0.00 0.00 74 1029.1
20200226123036 22 0.0 0.0 0.00 0.00 0.00 73 1029.0
20200226122023 22 0.0 0.0 0.00 0.00 0.00 73 1028.8
20200226121020 22 0.0 0.0 0.00 0.00 0.00 73 1029.0
20200226120030 23 0.0 0.0 0.00 0.00 0.00 72 1029.2
20200226115031 23 0.0 0.0 0.00 0.00 0.00 72 1029.1
20200226114024 23 0.0 0.0 0.00 0.00 0.00 71 1029.0
20200226113027 23 0.0 0.0 0.00 0.00 0.00 71 1028.9
20200226112030 23 0.0 0.0 0.00 0.00 0.00 71 1028.9
20200226111024 23 0.0 0.0 0.00 0.00 0.00 71 1029.1
20200226110021 23 0.0 0.0 0.00 0.00 0.00 70 1028.9
20200226105019 24 0.0 0.0 0.00 0.00 0.00 70 1028.9
20200226104025 24 0.0 0.0 0.00 0.00 0.00 70 1028.8
20200226103017 23 0.0 0.0 0.00 0.00 0.00 68 1028.7
20200226102034 24 0.0 0.0 0.00 0.00 0.00 65 1028.6
20200226101027 24 0.0 0.0 0.00 0.00 0.00 64 1028.5
20200226100037 24 0.0 0.0 0.00 0.00 0.00 63 1028.5
20200226095032 25 0.0 0.0 0.00 0.00 0.00 62 1028.5
20200226094025 25 0.0 0.0 0.00 0.00 0.00 62 1028.5
20200226093033 25 0.0 0.0 0.00 0.00 0.00 62 1028.6
20200226092022 25 0.0 0.0 0.00 0.00 0.00 61 1028.5
20200226091027 26 0.0 0.0 0.00 0.00 0.00 60 1028.7
20200226090034 26 0.0 0.0 0.00 0.00 0.00 60 1028.5
20200226085031 26 0 0.0 6.0 0.00 0.00 0.00 61 1028.5
20200226083034 26 0.0 0.0 0.00 0.00 0.00 63 1028.4
20200226082029 26 0.0 0.0 0.00 0.00 0.00 63 1028.5
20200226081022 27 338 1.0 4.0 0.00 0.00 0.00 63 1028.5
20200226080037 27 298 0.0 7.0 0.00 0.00 0.00 65 1028.5
20200226075020 27 0.0 0.0 0.00 0.00 0.00 63 1028.4
20200226074020 27 331 1.0 5.0 0.00 0.00 0.00 62 1028.2
20200226073037 28 337 2.0 9.0 0.00 0.00 0.00 63 1028.1
20200226072017 28 0.0 0.0 0.00 0.00 0.00 65 1028.1
20200226071023 27 0.0 0.0 0.00 0.00 0.00 65 1028.1
20200226070021 27 0.0 0.0 0.00 0.00 0.00 65 1028.1
20200226065029 28 0.0 0.0 0.00 0.00 0.00 63 1028.0
20200226064025 28 0.0 0.0 0.00 0.00 0.00 62 1027.9
20200226063018 28 0.0 0.0 0.00 0.00 0.00 61 1027.7
20200226062028 28 0.0 0.0 0.00 0.00 0.00 60 1027.6
20200226061026 28 0.0 0.0 0.00 0.00 0.00 60 1027.5
20200226060021 28 0.0 0.0 0.00 0.00 0.00 60 1027.3
20200226055022 28 0.0 0.0 0.00 0.00 0.00 60 1027.2
20200226054027 28 0.0 0.0 0.00 0.00 0.00 59 1027.1
20200226053019 29 0.0 0.0 0.00 0.00 0.00 59 1027.1
20200226052020 29 0.0 0.0 0.00 0.00 0.00 58 1026.9
20200226051020 29 0.0 0.0 0.00 0.00 0.00 57 1026.9
20200226050018 29 0.0 0.0 0.00 0.00 0.00 57 1026.7
20200226045028 30 0.0 0.0 0.00 0.00 0.00 56 1026.7
20200226044032 30 0.0 0.0 0.00 0.00 0.00 56 1026.5
20200226043028 30 0.0 0.0 0.00 0.00 0.00 56 1026.3
20200226042024 30 0.0 0.0 0.00 0.00 0.00 56 1026.1
20200226041024 31 0.0 0.0 0.00 0.00 0.00 55 1025.8
20200226040018 31 315 0.0 2.0 0.00 0.00 0.00 54 1025.6
20200226035024 32 0 0.0 5.0 0.00 0.00 0.00 53 1025.6
20200226034025 32 329 1.0 5.0 0.00 0.00 0.00 52 1025.5
20200226033025 32 332 1.0 6.0 0.00 0.00 0.00 51 1025.4
20200226032023 32 336 4.0 11.0 0.00 0.00 0.00 49 1025.2
20200226031020 33 0.0 0.0 0.00 0.00 0.00 48 1025.0
20200226030035 33 0 0.0 1.0 0.00 0.00 0.00 47 1024.7
20200226025018 33 13 0.0 2.0 0.00 0.00 0.00 47 1024.6
20200226024036 34 0.0 0.0 0.00 0.00 0.00 45 1024.4
20200226023035 34 0.0 0.0 0.00 0.00 0.00 44 1024.2
20200226022024 34 0.0 0.0 0.00 0.00 0.00 44 1023.9
20200226021018 35 23 0.0 1.0 0.00 0.00 0.00 44 1023.6
20200226020017 36 357 0.0 2.0 0.00 0.00 0.00 42 1023.1
20200226015026 36 346 2.0 6.0 0.00 0.00 0.00 39 1022.9
20200226014019 37 4 4.0 11.0 0.00 0.00 0.00 37 1022.7
20200226013026 37 349 8.0 14.0 0.00 0.00 0.00 37 1022.5
20200226012020 38 6 7.0 13.0 0.00 0.00 0.00 36 1022.0
20200226011032 39 353 6.0 11.0 0.00 0.00 0.00 34 1021.5
20200226010038 41 0 12.0 18.0 0.00 0.00 0.00 31 1020.9
20200226005026 42 2 9.0 13.0 0.00 0.00 0.00 31 1020.7
20200226004025 43 349 7.0 12.0 0.00 0.00 0.00 31 1020.4
20200226003039 42 293 0.0 2.0 0.00 0.00 0.00 36 1020.1
20200226002019 42 303 3.0 8.0 0.00 0.00 0.00 37 1019.8
20200226001021 42 287 2.0 4.0 0.00 0.00 0.00 38 1019.6
20200226000027 42 306 2.0 8.0 0.00 0.00 0.00 40 1019.5
20200225235024 42 311 6.0 11.0 0.00 0.00 0.00 40 1019.3
20200225234020 44 320 12.0 18.0 0.00 0.00 0.00 34 1019.0
20200225233038 46 318 3.0 11.0 0.00 0.00 0.00 32 1018.7
20200225232017 46 320 6.0 10.0 0.00 0.00 0.00 32 1018.5
20200225231023 46 323 6.0 9.0 0.00 0.00 0.00 32 1018.5
20200225230035 46 341 6.0 11.0 0.00 0.00 0.00 32 1018.1
20200225225019 46 321 8.0 13.0 0.00 0.00 0.00 33 1018.0
20200225224024 46 342 5.0 11.0 0.00 0.00 0.00 34 1017.8
20200225223034 46 2 6.0 11.0 0.00 0.00 0.00 34 1017.6